sensor_id;sensor_type;location;lat;lon;timestamp;temperature;humidity
63802;DHT22;49949;43.060;25.624;2023-12-29T00:00:42;-1.30;99.90
63802;DHT22;49949;43.060;25.624;2023-12-29T00:03:08;-1.30;99.90
63802;DHT22;49949;43.060;25.624;2023-12-29T00:05:34;-1.30;99.90
63802;DHT22;49949;43.060;25.624;2023-12-29T00:07:59;-1.20;99.90
63802;DHT22;49949;43.060;25.624;2023-12-29T00:10:25;-1.30;99.90
63802;DHT22;49949;43.060;25.624;2023-12-29T00:12:51;-1.30;99.90
63802;DHT22;49949;43.060;25.624;2023-12-29T00:15:19;-1.30;99.90
63802;DHT22;49949;43.060;25.624;2023-12-29T00:17:45;-1.30;99.90
63802;DHT22;49949;43.060;25.624;2023-12-29T00:20:12;-1.40;99.90
63802;DHT22;49949;43.060;25.624;2023-12-29T00:22:37;-1.30;99.90
63802;DHT22;49949;43.060;25.624;2023-12-29T00:25:03;-1.40;99.90
63802;DHT22;49949;43.060;25.624;2023-12-29T00:27:29;-1.30;99.90
63802;DHT22;49949;43.060;25.624;2023-12-29T00:29:55;-1.30;99.90
63802;DHT22;49949;43.060;25.624;2023-12-29T00:32:20;-1.40;99.90
63802;DHT22;49949;43.060;25.624;2023-12-29T00:34:46;-1.40;99.90
63802;DHT22;49949;43.060;25.624;2023-12-29T00:37:12;-1.40;99.90
63802;DHT22;49949;43.060;25.624;2023-12-29T00:39:37;-1.30;99.90
63802;DHT22;49949;43.060;25.624;2023-12-29T00:42:06;-1.40;99.90
63802;DHT22;49949;43.060;25.624;2023-12-29T00:44:32;-1.40;99.90
63802;DHT22;49949;43.060;25.624;2023-12-29T00:46:59;-1.30;99.90
63802;DHT22;49949;43.060;25.624;2023-12-29T00:49:25;-1.40;99.90
63802;DHT22;49949;43.060;25.624;2023-12-29T00:51:50;-1.40;99.90
63802;DHT22;49949;43.060;25.624;2023-12-29T00:54:17;-1.40;99.90
63802;DHT22;49949;43.060;25.624;2023-12-29T00:56:48;-1.40;99.90
63802;DHT22;49949;43.060;25.624;2023-12-29T00:59:15;-1.40;99.90
63802;DHT22;49949;43.060;25.624;2023-12-29T01:01:40;-1.40;99.90
63802;DHT22;49949;43.060;25.624;2023-12-29T01:04:06;-1.50;99.90
63802;DHT22;49949;43.060;25.624;2023-12-29T01:06:31;-1.50;99.90
63802;DHT22;49949;43.060;25.624;2023-12-29T01:08:57;-1.50;99.90
63802;DHT22;49949;43.060;25.624;2023-12-29T01:11:23;-1.50;99.90
63802;DHT22;49949;43.060;25.624;2023-12-29T01:13:49;-1.50;99.90
63802;DHT22;49949;43.060;25.624;2023-12-29T01:16:14;-1.60;99.90
63802;DHT22;49949;43.060;25.624;2023-12-29T01:18:40;-1.60;99.90
63802;DHT22;49949;43.060;25.624;2023-12-29T01:21:06;-1.60;99.90
63802;DHT22;49949;43.060;25.624;2023-12-29T01:23:31;-1.60;99.90
63802;DHT22;49949;43.060;25.624;2023-12-29T01:25:57;-1.70;99.90
63802;DHT22;49949;43.060;25.624;2023-12-29T01:28:23;-1.80;99.90
63802;DHT22;49949;43.060;25.624;2023-12-29T01:30:51;-1.80;99.90
63802;DHT22;49949;43.060;25.624;2023-12-29T01:33:16;-1.70;99.90
63802;DHT22;49949;43.060;25.624;2023-12-29T01:35:42;-1.70;99.90
63802;DHT22;49949;43.060;25.624;2023-12-29T01:38:08;-1.80;99.90
63802;DHT22;49949;43.060;25.624;2023-12-29T01:40:43;-1.70;99.90
63802;DHT22;49949;43.060;25.624;2023-12-29T01:43:09;-1.80;99.90
63802;DHT22;49949;43.060;25.624;2023-12-29T01:45:34;-1.80;99.90
63802;DHT22;49949;43.060;25.624;2023-12-29T01:48:00;-1.80;99.90
63802;DHT22;49949;43.060;25.624;2023-12-29T01:50:26;-1.80;99.90
63802;DHT22;49949;43.060;25.624;2023-12-29T01:52:52;-1.80;99.90
63802;DHT22;49949;43.060;25.624;2023-12-29T01:55:20;-1.90;99.90
63802;DHT22;49949;43.060;25.624;2023-12-29T01:57:49;-1.80;99.90
63802;DHT22;49949;43.060;25.624;2023-12-29T02:00:16;-1.90;99.90
63802;DHT22;49949;43.060;25.624;2023-12-29T02:02:42;-1.90;99.90
63802;DHT22;49949;43.060;25.624;2023-12-29T02:05:09;-1.90;99.90
63802;DHT22;49949;43.060;25.624;2023-12-29T02:07:35;-1.90;99.90
63802;DHT22;49949;43.060;25.624;2023-12-29T02:10:01;-1.90;99.90
63802;DHT22;49949;43.060;25.624;2023-12-29T02:12:27;-1.90;99.90
63802;DHT22;49949;43.060;25.624;2023-12-29T02:14:52;-1.90;99.90
63802;DHT22;49949;43.060;25.624;2023-12-29T02:17:26;-2.00;99.90
63802;DHT22;49949;43.060;25.624;2023-12-29T02:19:53;-1.90;99.90
63802;DHT22;49949;43.060;25.624;2023-12-29T02:22:19;-1.90;99.90
63802;DHT22;49949;43.060;25.624;2023-12-29T02:24:48;-1.90;99.90
63802;DHT22;49949;43.060;25.624;2023-12-29T02:29:47;-2.00;99.90
63802;DHT22;49949;43.060;25.624;2023-12-29T02:32:18;-2.00;99.90
63802;DHT22;49949;43.060;25.624;2023-12-29T02:34:45;-2.00;99.90
63802;DHT22;49949;43.060;25.624;2023-12-29T02:37:13;-2.00;99.90
63802;DHT22;49949;43.060;25.624;2023-12-29T02:39:39;-2.00;99.90
63802;DHT22;49949;43.060;25.624;2023-12-29T02:42:05;-2.00;99.90
63802;DHT22;49949;43.060;25.624;2023-12-29T02:44:31;-2.00;99.90
63802;DHT22;49949;43.060;25.624;2023-12-29T02:46:57;-2.00;99.90
63802;DHT22;49949;43.060;25.624;2023-12-29T02:49:23;-2.10;99.90
63802;DHT22;49949;43.060;25.624;2023-12-29T02:51:48;-2.10;99.90
63802;DHT22;49949;43.060;25.624;2023-12-29T02:54:15;-2.00;99.90
63802;DHT22;49949;43.060;25.624;2023-12-29T02:56:41;-2.00;99.90
63802;DHT22;49949;43.060;25.624;2023-12-29T02:59:07;-2.10;99.90
63802;DHT22;49949;43.060;25.624;2023-12-29T03:01:33;-2.10;99.90
63802;DHT22;49949;43.060;25.624;2023-12-29T03:04:00;-2.10;99.90
63802;DHT22;49949;43.060;25.624;2023-12-29T03:06:26;-2.10;99.90
63802;DHT22;49949;43.060;25.624;2023-12-29T03:08:52;-2.10;99.90
63802;DHT22;49949;43.060;25.624;2023-12-29T03:11:18;-2.10;99.90
63802;DHT22;49949;43.060;25.624;2023-12-29T03:13:43;-2.20;99.90
63802;DHT22;49949;43.060;25.624;2023-12-29T03:16:09;-2.20;99.90
63802;DHT22;49949;43.060;25.624;2023-12-29T03:18:35;-2.20;99.90
63802;DHT22;49949;43.060;25.624;2023-12-29T03:21:05;-2.10;99.90
63802;DHT22;49949;43.060;25.624;2023-12-29T03:23:31;-2.10;99.90
63802;DHT22;49949;43.060;25.624;2023-12-29T03:25:57;-2.20;99.90
63802;DHT22;49949;43.060;25.624;2023-12-29T03:28:22;-2.20;99.90
63802;DHT22;49949;43.060;25.624;2023-12-29T03:30:48;-2.20;99.90
63802;DHT22;49949;43.060;25.624;2023-12-29T03:33:15;-2.20;99.90
63802;DHT22;49949;43.060;25.624;2023-12-29T03:35:40;-2.20;99.90
63802;DHT22;49949;43.060;25.624;2023-12-29T03:38:06;-2.10;99.90
63802;DHT22;49949;43.060;25.624;2023-12-29T03:40:31;-2.20;99.90
63802;DHT22;49949;43.060;25.624;2023-12-29T03:42:57;-2.30;99.90
63802;DHT22;49949;43.060;25.624;2023-12-29T03:45:24;-2.30;99.90
63802;DHT22;49949;43.060;25.624;2023-12-29T03:47:49;-2.30;99.90
63802;DHT22;49949;43.060;25.624;2023-12-29T03:50:15;-2.30;99.90
63802;DHT22;49949;43.060;25.624;2023-12-29T03:52:41;-2.40;99.90
63802;DHT22;49949;43.060;25.624;2023-12-29T03:55:07;-2.30;99.90
63802;DHT22;49949;43.060;25.624;2023-12-29T03:57:32;-2.30;99.90
63802;DHT22;49949;43.060;25.624;2023-12-29T03:59:58;-2.30;99.90
63802;DHT22;49949;43.060;25.624;2023-12-29T04:02:24;-2.30;99.90
63802;DHT22;49949;43.060;25.624;2023-12-29T04:04:50;-2.30;99.90
63802;DHT22;49949;43.060;25.624;2023-12-29T04:07:15;-2.30;99.90
63802;DHT22;49949;43.060;25.624;2023-12-29T04:09:41;-2.40;99.90
63802;DHT22;49949;43.060;25.624;2023-12-29T04:12:07;-2.30;99.90
63802;DHT22;49949;43.060;25.624;2023-12-29T04:14:32;-2.30;99.90
63802;DHT22;49949;43.060;25.624;2023-12-29T04:16:58;-2.30;99.90
63802;DHT22;49949;43.060;25.624;2023-12-29T04:19:25;-2.40;99.90
63802;DHT22;49949;43.060;25.624;2023-12-29T04:21:51;-2.40;99.90
63802;DHT22;49949;43.060;25.624;2023-12-29T04:24:17;-2.40;99.90
63802;DHT22;49949;43.060;25.624;2023-12-29T04:26:43;-2.50;99.90
63802;DHT22;49949;43.060;25.624;2023-12-29T04:29:08;-2.40;99.90
63802;DHT22;49949;43.060;25.624;2023-12-29T04:31:34;-2.40;99.90
63802;DHT22;49949;43.060;25.624;2023-12-29T04:34:00;-2.50;99.90
63802;DHT22;49949;43.060;25.624;2023-12-29T04:36:26;-2.60;99.90
63802;DHT22;49949;43.060;25.624;2023-12-29T04:38:51;-2.50;99.90
63802;DHT22;49949;43.060;25.624;2023-12-29T04:41:17;-2.50;99.90
63802;DHT22;49949;43.060;25.624;2023-12-29T04:43:44;-2.50;99.90
63802;DHT22;49949;43.060;25.624;2023-12-29T04:46:09;-2.60;99.90
63802;DHT22;49949;43.060;25.624;2023-12-29T04:48:35;-2.60;99.90
63802;DHT22;49949;43.060;25.624;2023-12-29T04:51:00;-2.60;99.90
63802;DHT22;49949;43.060;25.624;2023-12-29T04:53:26;-2.60;99.90
63802;DHT22;49949;43.060;25.624;2023-12-29T04:55:52;-2.60;99.90
63802;DHT22;49949;43.060;25.624;2023-12-29T04:58:18;-2.70;99.90
63802;DHT22;49949;43.060;25.624;2023-12-29T05:00:43;-2.70;99.90
63802;DHT22;49949;43.060;25.624;2023-12-29T05:03:09;-2.70;99.90
63802;DHT22;49949;43.060;25.624;2023-12-29T05:05:35;-2.70;99.90
63802;DHT22;49949;43.060;25.624;2023-12-29T05:08:00;-2.70;99.90
63802;DHT22;49949;43.060;25.624;2023-12-29T05:10:26;-2.60;99.90
63802;DHT22;49949;43.060;25.624;2023-12-29T05:12:52;-2.70;99.90
63802;DHT22;49949;43.060;25.624;2023-12-29T05:15:17;-2.70;99.90
63802;DHT22;49949;43.060;25.624;2023-12-29T05:17:43;-2.70;99.90
63802;DHT22;49949;43.060;25.624;2023-12-29T05:20:09;-2.60;99.90
63802;DHT22;49949;43.060;25.624;2023-12-29T05:22:35;-2.70;99.90
63802;DHT22;49949;43.060;25.624;2023-12-29T05:25:01;-2.70;99.90
63802;DHT22;49949;43.060;25.624;2023-12-29T05:27:27;-2.70;99.90
63802;DHT22;49949;43.060;25.624;2023-12-29T05:29:53;-2.70;99.90
63802;DHT22;49949;43.060;25.624;2023-12-29T05:32:18;-2.60;99.90
63802;DHT22;49949;43.060;25.624;2023-12-29T05:34:44;-2.70;99.90
63802;DHT22;49949;43.060;25.624;2023-12-29T05:37:10;-2.70;99.90
63802;DHT22;49949;43.060;25.624;2023-12-29T05:39:35;-2.70;99.90
63802;DHT22;49949;43.060;25.624;2023-12-29T05:42:01;-2.70;99.90
63802;DHT22;49949;43.060;25.624;2023-12-29T05:44:26;-2.70;99.90
63802;DHT22;49949;43.060;25.624;2023-12-29T05:46:52;-2.70;99.90
63802;DHT22;49949;43.060;25.624;2023-12-29T05:49:24;-2.60;99.90
63802;DHT22;49949;43.060;25.624;2023-12-29T05:51:50;-2.50;99.90
63802;DHT22;49949;43.060;25.624;2023-12-29T05:54:15;-2.60;99.90
63802;DHT22;49949;43.060;25.624;2023-12-29T05:56:41;-2.60;99.90
63802;DHT22;49949;43.060;25.624;2023-12-29T05:59:07;-2.70;99.90
63802;DHT22;49949;43.060;25.624;2023-12-29T06:01:32;-2.60;99.90
63802;DHT22;49949;43.060;25.624;2023-12-29T06:03:58;-2.60;99.90
63802;DHT22;49949;43.060;25.624;2023-12-29T06:06:24;-2.70;99.90
63802;DHT22;49949;43.060;25.624;2023-12-29T06:08:49;-2.70;99.90
63802;DHT22;49949;43.060;25.624;2023-12-29T06:11:15;-2.60;99.90
63802;DHT22;49949;43.060;25.624;2023-12-29T06:13:42;-2.60;99.90
63802;DHT22;49949;43.060;25.624;2023-12-29T06:16:07;-2.60;99.90
63802;DHT22;49949;43.060;25.624;2023-12-29T06:18:33;-2.60;99.90
63802;DHT22;49949;43.060;25.624;2023-12-29T06:21:01;-2.50;99.90
63802;DHT22;49949;43.060;25.624;2023-12-29T06:23:26;-2.50;99.90
63802;DHT22;49949;43.060;25.624;2023-12-29T06:25:52;-2.60;99.90
63802;DHT22;49949;43.060;25.624;2023-12-29T06:28:18;-2.60;99.90
63802;DHT22;49949;43.060;25.624;2023-12-29T06:30:43;-2.50;99.90
63802;DHT22;49949;43.060;25.624;2023-12-29T06:33:09;-2.50;99.90
63802;DHT22;49949;43.060;25.624;2023-12-29T06:35:35;-2.40;99.90
63802;DHT22;49949;43.060;25.624;2023-12-29T06:38:01;-2.30;99.90
63802;DHT22;49949;43.060;25.624;2023-12-29T06:40:26;-2.30;99.90
63802;DHT22;49949;43.060;25.624;2023-12-29T06:42:52;-2.30;99.90
63802;DHT22;49949;43.060;25.624;2023-12-29T06:45:18;-2.40;99.90
63802;DHT22;49949;43.060;25.624;2023-12-29T06:47:43;-2.30;99.90
63802;DHT22;49949;43.060;25.624;2023-12-29T06:50:09;-2.20;99.90
63802;DHT22;49949;43.060;25.624;2023-12-29T06:52:38;-2.20;99.90
63802;DHT22;49949;43.060;25.624;2023-12-29T06:55:04;-2.20;99.90
63802;DHT22;49949;43.060;25.624;2023-12-29T06:57:30;-2.10;99.90
63802;DHT22;49949;43.060;25.624;2023-12-29T06:59:56;-2.10;99.90
63802;DHT22;49949;43.060;25.624;2023-12-29T07:02:22;-2.10;99.90
63802;DHT22;49949;43.060;25.624;2023-12-29T07:04:47;-2.00;99.90
63802;DHT22;49949;43.060;25.624;2023-12-29T07:07:13;-2.00;99.90
63802;DHT22;49949;43.060;25.624;2023-12-29T07:09:39;-1.90;99.90
63802;DHT22;49949;43.060;25.624;2023-12-29T07:12:08;-1.80;99.90
63802;DHT22;49949;43.060;25.624;2023-12-29T07:14:33;-1.70;99.90
63802;DHT22;49949;43.060;25.624;2023-12-29T07:17:01;-1.70;99.90
63802;DHT22;49949;43.060;25.624;2023-12-29T07:19:27;-1.60;99.90
63802;DHT22;49949;43.060;25.624;2023-12-29T07:21:59;-1.50;99.90
63802;DHT22;49949;43.060;25.624;2023-12-29T07:24:25;-1.50;99.90
63802;DHT22;49949;43.060;25.624;2023-12-29T07:26:50;-1.40;99.90
63802;DHT22;49949;43.060;25.624;2023-12-29T07:29:16;-1.40;99.90
63802;DHT22;49949;43.060;25.624;2023-12-29T07:31:42;-1.40;99.90
63802;DHT22;49949;43.060;25.624;2023-12-29T07:34:07;-1.30;99.90
63802;DHT22;49949;43.060;25.624;2023-12-29T07:36:37;-1.20;99.90
63802;DHT22;49949;43.060;25.624;2023-12-29T07:39:03;-1.10;99.90
63802;DHT22;49949;43.060;25.624;2023-12-29T07:41:29;-1.00;99.90
63802;DHT22;49949;43.060;25.624;2023-12-29T07:43:55;-1.00;99.90
63802;DHT22;49949;43.060;25.624;2023-12-29T07:46:27;-0.90;99.90
63802;DHT22;49949;43.060;25.624;2023-12-29T07:48:52;-0.80;99.90
63802;DHT22;49949;43.060;25.624;2023-12-29T07:51:18;-0.60;99.90
63802;DHT22;49949;43.060;25.624;2023-12-29T07:53:44;-0.50;99.90
63802;DHT22;49949;43.060;25.624;2023-12-29T07:56:13;-0.40;99.90
63802;DHT22;49949;43.060;25.624;2023-12-29T07:58:39;-0.30;99.90
63802;DHT22;49949;43.060;25.624;2023-12-29T08:01:04;-0.20;99.90
63802;DHT22;49949;43.060;25.624;2023-12-29T08:03:30;-0.10;99.90
63802;DHT22;49949;43.060;25.624;2023-12-29T08:05:56;-0.10;99.90
63802;DHT22;49949;43.060;25.624;2023-12-29T08:08:22;0.00;99.90
63802;DHT22;49949;43.060;25.624;2023-12-29T08:10:47;0.20;99.90
63802;DHT22;49949;43.060;25.624;2023-12-29T08:13:13;0.30;99.90
63802;DHT22;49949;43.060;25.624;2023-12-29T08:15:39;0.40;99.90
63802;DHT22;49949;43.060;25.624;2023-12-29T08:18:05;0.50;99.90
63802;DHT22;49949;43.060;25.624;2023-12-29T08:20:31;0.60;99.90
63802;DHT22;49949;43.060;25.624;2023-12-29T08:22:56;0.80;99.90
63802;DHT22;49949;43.060;25.624;2023-12-29T08:25:22;0.90;99.90
63802;DHT22;49949;43.060;25.624;2023-12-29T08:27:48;0.90;99.90
63802;DHT22;49949;43.060;25.624;2023-12-29T08:30:14;1.00;99.90
63802;DHT22;49949;43.060;25.624;2023-12-29T08:32:40;1.00;99.90
63802;DHT22;49949;43.060;25.624;2023-12-29T08:35:06;1.20;99.90
63802;DHT22;49949;43.060;25.624;2023-12-29T08:37:32;1.30;99.90
63802;DHT22;49949;43.060;25.624;2023-12-29T08:39:59;1.50;99.90
63802;DHT22;49949;43.060;25.624;2023-12-29T08:42:25;1.60;99.90
63802;DHT22;49949;43.060;25.624;2023-12-29T08:44:52;1.70;99.90
63802;DHT22;49949;43.060;25.624;2023-12-29T08:47:18;1.80;99.90
63802;DHT22;49949;43.060;25.624;2023-12-29T08:49:43;2.00;99.90
63802;DHT22;49949;43.060;25.624;2023-12-29T08:52:09;2.20;99.90
63802;DHT22;49949;43.060;25.624;2023-12-29T08:54:35;2.30;99.90
63802;DHT22;49949;43.060;25.624;2023-12-29T08:57:03;2.50;99.90
63802;DHT22;49949;43.060;25.624;2023-12-29T08:59:28;2.60;99.90
63802;DHT22;49949;43.060;25.624;2023-12-29T09:01:54;2.80;99.90
63802;DHT22;49949;43.060;25.624;2023-12-29T09:04:20;3.00;99.90
63802;DHT22;49949;43.060;25.624;2023-12-29T09:06:46;3.40;99.90
63802;DHT22;49949;43.060;25.624;2023-12-29T09:09:11;3.70;99.90
63802;DHT22;49949;43.060;25.624;2023-12-29T09:11:47;4.10;99.90
63802;DHT22;49949;43.060;25.624;2023-12-29T09:14:13;4.40;99.90
63802;DHT22;49949;43.060;25.624;2023-12-29T09:16:39;4.80;99.90
63802;DHT22;49949;43.060;25.624;2023-12-29T09:19:05;5.20;99.90
63802;DHT22;49949;43.060;25.624;2023-12-29T09:21:31;5.80;99.90
63802;DHT22;49949;43.060;25.624;2023-12-29T09:23:57;7.30;99.90
63802;DHT22;49949;43.060;25.624;2023-12-29T09:26:24;8.60;99.90
63802;DHT22;49949;43.060;25.624;2023-12-29T09:28:49;9.70;99.90
63802;DHT22;49949;43.060;25.624;2023-12-29T09:31:15;10.70;99.90
63802;DHT22;49949;43.060;25.624;2023-12-29T09:33:41;11.30;99.90
63802;DHT22;49949;43.060;25.624;2023-12-29T09:36:06;11.70;99.90
63802;DHT22;49949;43.060;25.624;2023-12-29T09:38:33;12.00;99.90
63802;DHT22;49949;43.060;25.624;2023-12-29T09:41:05;12.30;99.90
63802;DHT22;49949;43.060;25.624;2023-12-29T09:43:34;12.80;99.90
63802;DHT22;49949;43.060;25.624;2023-12-29T09:46:02;13.00;99.90
63802;DHT22;49949;43.060;25.624;2023-12-29T09:48:29;12.60;99.90
63802;DHT22;49949;43.060;25.624;2023-12-29T09:50:57;11.40;99.90
63802;DHT22;49949;43.060;25.624;2023-12-29T09:53:23;10.60;99.90
63802;DHT22;49949;43.060;25.624;2023-12-29T09:55:51;10.00;99.90
63802;DHT22;49949;43.060;25.624;2023-12-29T09:58:20;9.70;99.90
63802;DHT22;49949;43.060;25.624;2023-12-29T10:00:49;9.50;99.90
63802;DHT22;49949;43.060;25.624;2023-12-29T10:03:15;9.30;99.90
63802;DHT22;49949;43.060;25.624;2023-12-29T10:05:40;9.20;99.90
63802;DHT22;49949;43.060;25.624;2023-12-29T10:08:07;9.10;99.90
63802;DHT22;49949;43.060;25.624;2023-12-29T10:10:35;9.00;99.90
63802;DHT22;49949;43.060;25.624;2023-12-29T10:13:04;9.00;99.90
63802;DHT22;49949;43.060;25.624;2023-12-29T10:15:40;8.90;99.90
63802;DHT22;49949;43.060;25.624;2023-12-29T10:18:37;8.70;99.90
63802;DHT22;49949;43.060;25.624;2023-12-29T10:21:27;8.80;99.90
63802;DHT22;49949;43.060;25.624;2023-12-29T10:24:08;8.80;99.90
63802;DHT22;49949;43.060;25.624;2023-12-29T10:26:34;8.90;99.90
63802;DHT22;49949;43.060;25.624;2023-12-29T10:29:00;9.00;99.90
63802;DHT22;49949;43.060;25.624;2023-12-29T10:31:26;9.10;99.90
63802;DHT22;49949;43.060;25.624;2023-12-29T10:33:52;9.20;99.90
63802;DHT22;49949;43.060;25.624;2023-12-29T10:36:18;9.30;99.90
63802;DHT22;49949;43.060;25.624;2023-12-29T10:38:44;9.40;99.90
63802;DHT22;49949;43.060;25.624;2023-12-29T10:43:37;9.50;99.90
63802;DHT22;49949;43.060;25.624;2023-12-29T10:46:06;9.50;99.90
63802;DHT22;49949;43.060;25.624;2023-12-29T10:48:35;9.70;99.90
63802;DHT22;49949;43.060;25.624;2023-12-29T10:51:04;10.00;99.90
63802;DHT22;49949;43.060;25.624;2023-12-29T10:53:34;10.10;99.90
63802;DHT22;49949;43.060;25.624;2023-12-29T10:56:00;10.30;99.90
63802;DHT22;49949;43.060;25.624;2023-12-29T10:58:30;10.30;99.90
63802;DHT22;49949;43.060;25.624;2023-12-29T11:00:57;10.40;99.90
63802;DHT22;49949;43.060;25.624;2023-12-29T11:03:23;10.60;99.90
63802;DHT22;49949;43.060;25.624;2023-12-29T11:05:50;10.70;99.90
63802;DHT22;49949;43.060;25.624;2023-12-29T11:08:20;11.00;99.90
63802;DHT22;49949;43.060;25.624;2023-12-29T11:10:50;11.30;99.90
63802;DHT22;49949;43.060;25.624;2023-12-29T11:13:16;11.60;99.90
63802;DHT22;49949;43.060;25.624;2023-12-29T11:15:43;11.80;99.90
63802;DHT22;49949;43.060;25.624;2023-12-29T11:18:16;12.10;99.90
63802;DHT22;49949;43.060;25.624;2023-12-29T11:20:43;12.30;99.90
63802;DHT22;49949;43.060;25.624;2023-12-29T11:23:10;12.50;99.90
63802;DHT22;49949;43.060;25.624;2023-12-29T11:25:37;12.60;99.90
63802;DHT22;49949;43.060;25.624;2023-12-29T11:28:03;12.70;99.90
63802;DHT22;49949;43.060;25.624;2023-12-29T11:30:29;12.90;99.90
63802;DHT22;49949;43.060;25.624;2023-12-29T11:33:03;13.00;99.90
63802;DHT22;49949;43.060;25.624;2023-12-29T11:35:37;13.00;99.90
63802;DHT22;49949;43.060;25.624;2023-12-29T11:40:52;13.20;99.90
63802;DHT22;49949;43.060;25.624;2023-12-29T11:43:19;13.30;99.90
63802;DHT22;49949;43.060;25.624;2023-12-29T11:45:45;13.30;99.90
63802;DHT22;49949;43.060;25.624;2023-12-29T11:48:11;13.30;99.90
63802;DHT22;49949;43.060;25.624;2023-12-29T11:50:40;13.30;99.90
63802;DHT22;49949;43.060;25.624;2023-12-29T11:53:07;13.30;99.90
63802;DHT22;49949;43.060;25.624;2023-12-29T11:55:38;13.30;99.90
63802;DHT22;49949;43.060;25.624;2023-12-29T11:58:26;13.40;99.90
63802;DHT22;49949;43.060;25.624;2023-12-29T12:00:52;13.40;99.90
63802;DHT22;49949;43.060;25.624;2023-12-29T12:03:28;13.50;99.90
63802;DHT22;49949;43.060;25.624;2023-12-29T12:05:57;13.60;99.90
63802;DHT22;49949;43.060;25.624;2023-12-29T12:08:44;13.60;99.90
63802;DHT22;49949;43.060;25.624;2023-12-29T12:13:56;13.50;99.90
63802;DHT22;49949;43.060;25.624;2023-12-29T12:19:11;13.70;99.90
63802;DHT22;49949;43.060;25.624;2023-12-29T12:21:37;13.60;99.90
63802;DHT22;49949;43.060;25.624;2023-12-29T12:24:06;13.60;99.90
63802;DHT22;49949;43.060;25.624;2023-12-29T12:26:33;13.70;99.90
63802;DHT22;49949;43.060;25.624;2023-12-29T12:28:59;13.70;99.90
63802;DHT22;49949;43.060;25.624;2023-12-29T12:31:25;13.60;99.90
63802;DHT22;49949;43.060;25.624;2023-12-29T12:33:58;13.60;99.90
63802;DHT22;49949;43.060;25.624;2023-12-29T12:36:26;13.60;99.90
63802;DHT22;49949;43.060;25.624;2023-12-29T12:38:55;13.60;99.90
63802;DHT22;49949;43.060;25.624;2023-12-29T12:41:25;13.60;99.90
63802;DHT22;49949;43.060;25.624;2023-12-29T12:46:26;13.60;99.90
63802;DHT22;49949;43.060;25.624;2023-12-29T12:48:52;13.50;99.90
63802;DHT22;49949;43.060;25.624;2023-12-29T12:51:20;13.50;99.90
63802;DHT22;49949;43.060;25.624;2023-12-29T12:53:46;13.50;99.90
63802;DHT22;49949;43.060;25.624;2023-12-29T12:56:14;13.50;99.90
63802;DHT22;49949;43.060;25.624;2023-12-29T12:58:40;13.50;99.90
63802;DHT22;49949;43.060;25.624;2023-12-29T13:01:06;13.60;99.90
63802;DHT22;49949;43.060;25.624;2023-12-29T13:03:33;13.60;99.90
63802;DHT22;49949;43.060;25.624;2023-12-29T13:05:59;13.50;99.90
63802;DHT22;49949;43.060;25.624;2023-12-29T13:08:26;13.50;99.90
63802;DHT22;49949;43.060;25.624;2023-12-29T13:10:53;13.50;99.90
63802;DHT22;49949;43.060;25.624;2023-12-29T13:13:18;13.40;99.90
63802;DHT22;49949;43.060;25.624;2023-12-29T13:15:48;13.40;99.90
63802;DHT22;49949;43.060;25.624;2023-12-29T13:18:15;13.40;99.90
63802;DHT22;49949;43.060;25.624;2023-12-29T13:20:47;13.30;99.90
63802;DHT22;49949;43.060;25.624;2023-12-29T13:23:13;13.30;99.90
63802;DHT22;49949;43.060;25.624;2023-12-29T13:25:40;13.30;99.90
63802;DHT22;49949;43.060;25.624;2023-12-29T13:28:08;13.20;99.90
63802;DHT22;49949;43.060;25.624;2023-12-29T13:30:36;13.10;99.90
63802;DHT22;49949;43.060;25.624;2023-12-29T13:36:06;12.60;99.90
63802;DHT22;49949;43.060;25.624;2023-12-29T13:38:39;12.50;99.90
63802;DHT22;49949;43.060;25.624;2023-12-29T13:41:09;12.40;99.90
63802;DHT22;49949;43.060;25.624;2023-12-29T13:43:39;12.20;99.90
63802;DHT22;49949;43.060;25.624;2023-12-29T13:46:09;12.00;99.90
63802;DHT22;49949;43.060;25.624;2023-12-29T13:48:36;11.80;99.90
63802;DHT22;49949;43.060;25.624;2023-12-29T13:51:01;11.60;99.90
63802;DHT22;49949;43.060;25.624;2023-12-29T13:53:27;11.30;99.90
63802;DHT22;49949;43.060;25.624;2023-12-29T13:56:08;11.10;99.90
63802;DHT22;49949;43.060;25.624;2023-12-29T13:58:34;10.80;99.90
63802;DHT22;49949;43.060;25.624;2023-12-29T14:01:00;10.50;99.90
63802;DHT22;49949;43.060;25.624;2023-12-29T14:03:42;10.40;99.90
63802;DHT22;49949;43.060;25.624;2023-12-29T14:06:12;10.30;99.90
63802;DHT22;49949;43.060;25.624;2023-12-29T14:08:41;10.10;99.90
63802;DHT22;49949;43.060;25.624;2023-12-29T14:11:07;10.00;99.90
63802;DHT22;49949;43.060;25.624;2023-12-29T14:13:34;9.90;99.90
63802;DHT22;49949;43.060;25.624;2023-12-29T14:16:01;9.60;99.90
63802;DHT22;49949;43.060;25.624;2023-12-29T14:21:31;9.10;99.90
63802;DHT22;49949;43.060;25.624;2023-12-29T14:24:17;8.90;99.90
63802;DHT22;49949;43.060;25.624;2023-12-29T14:29:18;8.50;99.90
63802;DHT22;49949;43.060;25.624;2023-12-29T14:31:44;8.40;99.90
63802;DHT22;49949;43.060;25.624;2023-12-29T14:34:11;8.30;99.90
63802;DHT22;49949;43.060;25.624;2023-12-29T14:36:41;8.30;99.90
63802;DHT22;49949;43.060;25.624;2023-12-29T14:39:07;8.30;99.90
63802;DHT22;49949;43.060;25.624;2023-12-29T14:41:35;8.30;99.90
63802;DHT22;49949;43.060;25.624;2023-12-29T14:44:01;8.30;99.90
63802;DHT22;49949;43.060;25.624;2023-12-29T14:46:27;8.20;99.90
63802;DHT22;49949;43.060;25.624;2023-12-29T14:48:54;8.00;99.90
63802;DHT22;49949;43.060;25.624;2023-12-29T14:51:22;7.90;99.90
63802;DHT22;49949;43.060;25.624;2023-12-29T14:53:48;7.80;99.90
63802;DHT22;49949;43.060;25.624;2023-12-29T14:56:15;7.50;99.90
63802;DHT22;49949;43.060;25.624;2023-12-29T14:58:41;7.30;99.90
63802;DHT22;49949;43.060;25.624;2023-12-29T15:01:07;7.20;99.90
63802;DHT22;49949;43.060;25.624;2023-12-29T15:03:34;7.10;99.90
63802;DHT22;49949;43.060;25.624;2023-12-29T15:06:01;7.00;99.90
63802;DHT22;49949;43.060;25.624;2023-12-29T15:08:28;6.90;99.90
63802;DHT22;49949;43.060;25.624;2023-12-29T15:11:03;6.80;99.90
63802;DHT22;49949;43.060;25.624;2023-12-29T15:13:29;6.60;99.90
63802;DHT22;49949;43.060;25.624;2023-12-29T15:15:59;6.50;99.90
63802;DHT22;49949;43.060;25.624;2023-12-29T15:18:28;6.30;99.90
63802;DHT22;49949;43.060;25.624;2023-12-29T15:20:56;6.20;99.90
63802;DHT22;49949;43.060;25.624;2023-12-29T15:23:21;6.00;99.90
63802;DHT22;49949;43.060;25.624;2023-12-29T15:25:49;6.00;99.90
63802;DHT22;49949;43.060;25.624;2023-12-29T15:28:15;5.90;99.90
63802;DHT22;49949;43.060;25.624;2023-12-29T15:30:43;5.80;99.90
63802;DHT22;49949;43.060;25.624;2023-12-29T15:33:08;5.80;99.90
63802;DHT22;49949;43.060;25.624;2023-12-29T15:35:34;5.70;99.90
63802;DHT22;49949;43.060;25.624;2023-12-29T15:38:00;5.70;99.90
63802;DHT22;49949;43.060;25.624;2023-12-29T15:40:25;5.70;99.90
63802;DHT22;49949;43.060;25.624;2023-12-29T15:42:51;5.60;99.90